Time;durP1;ratioP1;P1;durP2;ratioP2;P2;SDS_P1;SDS_P2;PMS_P1;PMS_P2;Temp;Humidity;BMP_temperature;BMP_pressure;BME280_temperature;BME280_humidity;BME280_pressure;Samples;Min_cycle;Max_cycle;Signal;HPM_P1;HPM_P2
2021/06/02 00:03:47;;;;;;;1999.90;999.90;;;15.90;99.90;;;;;;4995603;28;20226;-76
2021/06/02 00:06:13;;;;;;;1999.90;999.90;;;15.90;99.90;;;;;;4994532;28;20195;-77
2021/06/02 00:08:39;;;;;;;1999.90;999.90;;;15.90;99.90;;;;;;4994678;28;20226;-77
2021/06/02 00:11:07;;;;;;;1999.90;999.90;;;15.80;99.90;;;;;;4994594;28;20186;-79
2021/06/02 00:13:36;;;;;;;1999.90;999.90;;;15.80;99.90;;;;;;4994531;28;20651;-77
2021/06/02 00:16:02;;;;;;;1999.90;999.90;;;15.70;99.90;;;;;;4976916;28;20209;-76
2021/06/02 00:18:28;;;;;;;1999.90;999.90;;;15.70;99.90;;;;;;4994447;28;20208;-77
2021/06/02 00:20:56;;;;;;;1999.90;999.90;;;15.60;99.90;;;;;;4995784;28;20180;-76
2021/06/02 00:23:22;;;;;;;1999.90;999.90;;;15.60;99.90;;;;;;4995399;28;20739;-75
2021/06/02 00:25:48;;;;;;;1999.90;999.90;;;15.50;99.90;;;;;;4994344;28;20191;-77
2021/06/02 00:28:16;;;;;;;1999.90;999.90;;;15.50;99.90;;;;;;4994090;28;20208;-77
2021/06/02 00:30:44;;;;;;;1999.90;999.90;;;15.50;99.90;;;;;;4994584;28;20223;-76
2021/06/02 00:33:10;;;;;;;1999.90;999.90;;;15.40;99.90;;;;;;4994146;28;20172;-77
2021/06/02 00:35:37;;;;;;;1999.90;999.90;;;15.40;99.90;;;;;;4994666;28;20223;-75
2021/06/02 00:38:04;;;;;;;1999.90;999.90;;;15.30;99.90;;;;;;4995057;28;20698;-77
2021/06/02 00:40:42;;;;;;;1999.90;999.90;;;15.20;99.90;;;;;;4995178;28;20246;-76
2021/06/02 00:43:08;;;;;;;1999.90;999.90;;;15.10;99.90;;;;;;4976886;28;20199;-78
2021/06/02 00:45:34;;;;;;;1999.90;999.90;;;15.00;99.90;;;;;;4965963;28;20553;-77
2021/06/02 00:48:03;;;;;;;1999.90;999.90;;;15.00;99.90;;;;;;4992510;28;20271;-76
2021/06/02 00:50:30;;;;;;;1999.90;999.90;;;14.90;99.90;;;;;;4993464;28;20631;-76
2021/06/02 00:52:56;;;;;;;1999.90;999.90;;;15.00;99.90;;;;;;4993281;28;20187;-76
2021/06/02 00:55:22;;;;;;;1999.90;999.90;;;14.90;99.90;;;;;;4993540;28;20562;-77
2021/06/02 00:57:51;;;;;;;1999.90;999.90;;;14.90;99.90;;;;;;4993263;28;20172;-76
2021/06/02 01:00:17;;;;;;;1999.90;999.90;;;14.80;99.90;;;;;;4993381;28;20234;-77
2021/06/02 01:02:56;;;;;;;1999.90;999.90;;;14.80;99.90;;;;;;4993393;28;20175;-76
2021/06/02 01:05:24;;;;;;;1999.90;999.90;;;14.70;99.90;;;;;;4991206;28;20258;-76
2021/06/02 01:07:51;;;;;;;1999.90;999.90;;;14.60;99.90;;;;;;4992485;28;20183;-75
2021/06/02 01:10:21;;;;;;;1999.90;999.90;;;14.60;99.90;;;;;;4993131;28;20226;-76
2021/06/02 01:12:50;;;;;;;1999.90;999.90;;;14.50;99.90;;;;;;4975633;28;20175;-76
2021/06/02 01:15:19;;;;;;;1999.90;999.90;;;14.60;99.90;;;;;;5001822;28;20202;-77
2021/06/02 01:17:46;;;;;;;1999.90;999.90;;;14.60;99.90;;;;;;5002887;28;20250;-76
2021/06/02 01:20:13;;;;;;;1999.90;999.90;;;14.60;99.90;;;;;;5019272;23;20232;-77
2021/06/02 01:22:42;;;;;;;1999.90;999.90;;;14.60;99.90;;;;;;4978411;28;20174;-73
2021/06/02 01:25:16;;;;;;;1999.90;999.90;;;14.50;99.90;;;;;;4993283;28;20749;-76
2021/06/02 01:27:42;;;;;;;1999.90;999.90;;;14.40;99.90;;;;;;4993205;28;20168;-75
2021/06/02 01:30:18;;;;;;;1999.90;999.90;;;14.40;99.90;;;;;;4992992;28;20207;-77
2021/06/02 01:33:25;;;;;;;1999.90;999.90;;;14.30;99.90;;;;;;4975607;28;20553;-76
2021/06/02 01:35:56;;;;;;;1999.90;999.90;;;14.30;99.90;;;;;;4970028;28;20222;-76
2021/06/02 01:38:53;;;;;;;1999.90;999.90;;;14.20;99.90;;;;;;4991492;28;20267;-77
2021/06/02 01:41:26;;;;;;;1999.90;999.90;;;14.10;99.90;;;;;;4982928;28;20545;-75
2021/06/02 01:44:31;;;;;;;1999.90;999.90;;;14.00;99.90;;;;;;4974471;28;20199;-77
2021/06/02 01:47:18;;;;;;;1999.90;999.90;;;13.90;99.90;;;;;;4992031;28;20179;-77
2021/06/02 01:50:08;;;;;;;1999.90;999.90;;;13.80;99.90;;;;;;4976291;28;20243;-74
2021/06/02 01:52:55;;;;;;;1999.90;999.90;;;13.70;99.90;;;;;;4993757;28;20180;-73
2021/06/02 01:55:58;;;;;;;1999.90;999.90;;;13.60;99.90;;;;;;4992677;28;20194;-75
2021/06/02 01:58:33;;;;;;;1999.90;999.90;;;13.60;99.90;;;;;;4974914;28;20178;-76
2021/06/02 02:01:54;;;;;;;1999.90;999.90;;;13.70;99.90;;;;;;4992278;28;20203;-76
2021/06/02 02:04:57;;;;;;;1999.90;999.90;;;13.70;99.90;;;;;;4959110;28;20192;-76
2021/06/02 02:07:43;;;;;;;1999.90;999.90;;;13.70;99.90;;;;;;4992255;28;20650;-77
2021/06/02 02:10:18;;;;;;;1999.90;999.90;;;13.60;99.90;;;;;;4993131;28;20195;-76
2021/06/02 02:13:20;;;;;;;1999.90;999.90;;;13.60;99.90;;;;;;4993547;28;20175;-76
2021/06/02 02:16:24;;;;;;;1999.90;999.90;;;13.60;99.90;;;;;;4992065;28;20198;-75
2021/06/02 02:19:00;;;;;;;1999.90;999.90;;;13.60;99.90;;;;;;4990902;28;20599;-75
2021/06/02 02:21:39;;;;;;;1999.90;999.90;;;13.60;99.90;;;;;;4991668;28;20871;-76
2021/06/02 02:24:10;;;;;;;1999.90;999.90;;;13.40;99.90;;;;;;4991934;28;20174;-75
2021/06/02 02:27:08;;;;;;;1999.90;999.90;;;13.30;99.90;;;;;;4991999;28;20184;-76
2021/06/02 02:29:36;;;;;;;1999.90;999.90;;;13.20;99.90;;;;;;4974383;28;20167;-75
2021/06/02 02:32:25;;;;;;;1999.90;999.90;;;13.00;99.90;;;;;;4991697;28;20186;-76
2021/06/02 02:34:53;;;;;;;1999.90;999.90;;;13.00;99.90;;;;;;4991743;28;20249;-75
2021/06/02 02:37:39;;;;;;;1999.90;999.90;;;12.90;99.90;;;;;;4991690;28;20736;-75
2021/06/02 02:40:20;;;;;;;1999.90;999.90;;;12.70;99.90;;;;;;4991593;28;20231;-75
2021/06/02 02:43:12;;;;;;;1999.90;999.90;;;12.70;99.90;;;;;;4992396;28;20222;-74
2021/06/02 02:45:46;;;;;;;1999.90;999.90;;;12.70;99.90;;;;;;4993207;28;20262;-76
2021/06/02 02:48:34;;;;;;;1999.90;999.90;;;12.70;99.90;;;;;;4992065;28;20190;-76
2021/06/02 02:51:24;;;;;;;1999.90;999.90;;;12.60;99.90;;;;;;4973975;28;20297;-77
2021/06/02 02:54:04;;;;;;;1999.90;999.90;;;12.50;99.90;;;;;;4992002;28;20658;-75
2021/06/02 02:56:53;;;;;;;1999.90;999.90;;;12.50;99.90;;;;;;4991464;28;20197;-76
2021/06/02 02:59:51;;;;;;;1999.90;999.90;;;12.60;99.90;;;;;;4991901;28;20164;-76
2021/06/02 03:02:49;;;;;;;1999.90;999.90;;;12.50;99.90;;;;;;4991593;28;20172;-76
2021/06/02 03:05:30;;;;;;;1999.90;999.90;;;12.40;99.90;;;;;;4995029;28;20191;-76
2021/06/02 03:08:17;;;;;;;1999.90;999.90;;;12.40;99.90;;;;;;4979420;28;20177;-76
2021/06/02 03:10:51;;;;;;;1999.90;999.90;;;12.40;99.90;;;;;;4991581;28;20203;-76
2021/06/02 03:13:25;;;;;;;1999.90;999.90;;;12.20;99.90;;;;;;4980165;28;20226;-75
2021/06/02 03:15:58;;;;;;;1999.90;999.90;;;12.20;99.90;;;;;;5001230;28;20199;-75
2021/06/02 03:18:58;;;;;;;1999.90;999.90;;;12.20;99.90;;;;;;4992470;28;20181;-77
2021/06/02 03:21:52;;;;;;;1999.90;999.90;;;12.20;99.90;;;;;;4992381;28;20223;-77
2021/06/02 03:24:37;;;;;;;1999.90;999.90;;;12.10;99.90;;;;;;4991240;28;20557;-75
2021/06/02 03:27:10;;;;;;;1999.90;999.90;;;12.20;99.90;;;;;;4991328;28;20187;-75
2021/06/02 03:30:04;;;;;;;1999.90;999.90;;;12.20;99.90;;;;;;4991512;28;20196;-77
2021/06/02 03:33:07;;;;;;;1999.90;999.90;;;12.10;99.90;;;;;;4995067;28;20170;-77
2021/06/02 03:35:51;;;;;;;1999.90;999.90;;;12.10;99.90;;;;;;4994961;28;20196;-76
2021/06/02 03:38:31;;;;;;;1999.90;999.90;;;12.20;99.90;;;;;;4995211;28;20183;-77
2021/06/02 03:41:16;;;;;;;1999.90;999.90;;;12.00;99.90;;;;;;4994829;28;20252;-76
2021/06/02 03:43:53;;;;;;;1999.90;999.90;;;12.10;99.90;;;;;;4994828;28;20179;-76
2021/06/02 03:46:37;;;;;;;1999.90;999.90;;;12.10;99.90;;;;;;4995236;28;20186;-75
2021/06/02 03:49:16;;;;;;;1999.90;999.90;;;12.20;99.90;;;;;;4977324;28;20194;-75
2021/06/02 03:52:02;;;;;;;1999.90;999.90;;;12.20;99.90;;;;;;4985752;28;20171;-76
2021/06/02 03:54:51;;;;;;;1999.90;999.90;;;12.20;99.90;;;;;;4995355;28;20540;-73
2021/06/02 03:57:43;;;;;;;1999.90;999.90;;;12.20;99.90;;;;;;4996845;28;20180;-73
2021/06/02 04:00:14;;;;;;;1999.90;999.90;;;12.20;99.90;;;;;;4996681;28;20704;-76
2021/06/02 04:02:51;;;;;;;1999.90;999.90;;;12.30;99.90;;;;;;4983552;28;20184;-73
2021/06/02 04:05:33;;;;;;;1999.90;999.90;;;12.30;99.90;;;;;;4986604;28;20204;-77
2021/06/02 04:08:11;;;;;;;1999.90;999.90;;;12.30;99.90;;;;;;4983085;28;20423;-77
2021/06/02 04:11:02;;;;;;;1999.90;999.90;;;12.40;99.90;;;;;;4994695;28;20612;-76
2021/06/02 04:13:54;;;;;;;1999.90;999.90;;;12.40;99.90;;;;;;4995814;28;20175;-76
2021/06/02 04:16:29;;;;;;;1999.90;999.90;;;12.40;99.90;;;;;;4996525;28;20192;-76
2021/06/02 04:18:55;;;;;;;1999.90;999.90;;;12.40;99.90;;;;;;4996463;28;20179;-76
2021/06/02 04:21:23;;;;;;;1999.90;999.90;;;12.50;99.90;;;;;;4996456;28;20581;-76
2021/06/02 04:23:51;;;;;;;1999.90;999.90;;;12.60;99.90;;;;;;4996533;28;20177;-76
2021/06/02 04:26:17;;;;;;;1999.90;999.90;;;12.60;99.90;;;;;;4996371;28;20182;-76
2021/06/02 04:28:43;;;;;;;1999.90;999.90;;;12.50;99.90;;;;;;4979750;28;20182;-76
2021/06/02 04:31:11;;;;;;;1999.90;999.90;;;12.50;99.90;;;;;;4979102;28;20271;-75
2021/06/02 04:33:40;;;;;;;1999.90;999.90;;;12.60;99.90;;;;;;4978908;28;20174;-75
2021/06/02 04:36:08;;;;;;;1999.90;999.90;;;12.60;99.90;;;;;;4996058;28;20187;-75
2021/06/02 04:38:34;;;;;;;1999.90;999.90;;;12.60;99.90;;;;;;4996627;28;20673;-74
2021/06/02 04:41:08;;;;;;;1999.90;999.90;;;12.60;99.90;;;;;;4977929;28;20203;-76
2021/06/02 04:43:38;;;;;;;1999.90;999.90;;;12.60;99.90;;;;;;4978689;28;20172;-75
2021/06/02 04:46:07;;;;;;;1999.90;999.90;;;12.80;99.90;;;;;;4995920;28;20172;-75
2021/06/02 04:48:41;;;;;;;1999.90;999.90;;;12.80;99.90;;;;;;4978417;28;20180;-75
2021/06/02 04:51:40;;;;;;;1999.90;999.90;;;12.80;99.90;;;;;;4995950;28;20570;-76
2021/06/02 04:54:30;;;;;;;1999.90;999.90;;;12.90;99.90;;;;;;4978471;28;20178;-74
2021/06/02 04:57:26;;;;;;;1999.90;999.90;;;13.00;99.90;;;;;;4986258;28;20199;-76
2021/06/02 05:00:19;;;;;;;1999.90;999.90;;;13.10;99.90;;;;;;4997866;28;20206;-76
2021/06/02 05:03:22;;;;;;;1999.90;999.90;;;13.10;99.90;;;;;;4996078;28;20196;-76
2021/06/02 05:05:54;;;;;;;1999.90;999.90;;;13.20;99.90;;;;;;4979430;28;20608;-76
2021/06/02 05:08:31;;;;;;;1999.90;999.90;;;13.30;99.90;;;;;;5004595;28;20651;-74
2021/06/02 05:11:30;;;;;;;1999.90;999.90;;;13.30;99.90;;;;;;4996077;28;20203;-76
2021/06/02 05:15:06;;;;;;;1999.90;999.90;;;13.50;99.90;;;;;;4996729;28;20190;-76
2021/06/02 05:18:00;;;;;;;1999.90;999.90;;;13.60;99.90;;;;;;4921664;28;20610;-74
2021/06/02 05:23:35;;;;;;;1999.90;999.90;;;14.00;99.90;;;;;;4993311;28;20186;-77
2021/06/02 05:26:12;;;;;;;1999.90;999.90;;;14.20;99.90;;;;;;4994123;28;20180;-75
2021/06/02 05:29:02;;;;;;;1999.90;999.90;;;14.30;99.90;;;;;;4976297;28;20261;-76
2021/06/02 05:31:41;;;;;;;1999.90;999.90;;;14.50;99.90;;;;;;4992997;28;20196;-77
2021/06/02 05:34:22;;;;;;;1999.90;999.90;;;14.50;99.90;;;;;;4993088;28;20172;-76
2021/06/02 05:37:32;;;;;;;1999.90;999.90;;;14.50;99.90;;;;;;4990316;28;20274;-75
2021/06/02 05:40:13;;;;;;;1999.90;999.90;;;14.60;99.90;;;;;;4961473;28;20294;-77
2021/06/02 05:43:34;;;;;;;1999.90;999.90;;;14.80;99.90;;;;;;4994811;28;20530;-77
2021/06/02 05:46:41;;;;;;;1999.90;999.90;;;14.80;99.90;;;;;;4977491;28;20209;-77
2021/06/02 05:49:36;;;;;;;1999.90;999.90;;;14.80;99.90;;;;;;4947021;28;20196;-75
2021/06/02 05:52:42;;;;;;;1999.90;999.90;;;15.00;99.90;;;;;;4961293;28;20183;-72
2021/06/02 05:55:40;;;;;;;1999.90;999.90;;;15.10;99.90;;;;;;4974965;28;20290;-77
2021/06/02 05:59:00;;;;;;;1999.90;999.90;;;15.20;99.90;;;;;;4991616;28;20184;-76
2021/06/02 06:01:53;;;;;;;1999.90;999.90;;;15.20;99.90;;;;;;4991837;28;20200;-77
2021/06/02 06:05:08;;;;;;;1999.90;999.90;;;15.20;99.90;;;;;;4988556;28;20183;-76
2021/06/02 06:07:46;;;;;;;1999.90;999.90;;;15.30;99.90;;;;;;4995024;28;20541;-76
2021/06/02 06:10:32;;;;;;;1999.90;999.90;;;15.40;99.90;;;;;;4995016;28;20274;-77
2021/06/02 06:13:28;;;;;;;1999.90;999.90;;;15.50;99.90;;;;;;4995460;28;20176;-78
2021/06/02 06:16:34;;;;;;;1999.90;999.90;;;15.70;99.90;;;;;;4977461;28;20195;-74
2021/06/02 06:19:29;;;;;;;1999.90;999.90;;;15.80;99.90;;;;;;4997751;28;20168;-78
2021/06/02 06:22:38;;;;;;;1999.90;999.90;;;16.10;99.90;;;;;;4981544;28;20184;-74
2021/06/02 06:25:40;;;;;;;1999.90;999.90;;;16.20;99.90;;;;;;4992936;28;20188;-79
2021/06/02 06:28:15;;;;;;;1999.90;999.90;;;16.30;99.90;;;;;;4995382;28;20199;-77
2021/06/02 06:30:42;;;;;;;1999.90;999.90;;;16.30;99.90;;;;;;5026310;23;20250;-77
2021/06/02 06:34:05;;;;;;;1999.90;999.90;;;16.40;99.90;;;;;;4974483;28;20653;-76
2021/06/02 06:36:33;;;;;;;1999.90;999.90;;;16.50;99.90;;;;;;4968096;28;20244;-78
2021/06/02 06:39:05;;;;;;;1999.90;999.90;;;16.50;99.90;;;;;;4976787;28;20180;-77
2021/06/02 06:41:33;;;;;;;1999.90;999.90;;;16.60;99.90;;;;;;4973530;28;20212;-77
2021/06/02 06:44:01;;;;;;;1999.90;999.90;;;16.60;99.90;;;;;;4976664;28;20267;-77
2021/06/02 06:46:29;;;;;;;1999.90;999.90;;;16.70;99.90;;;;;;4972828;28;20188;-77
2021/06/02 06:48:58;;;;;;;1999.90;999.90;;;16.80;99.90;;;;;;4986683;28;20208;-76
2021/06/02 06:51:28;;;;;;;1999.90;999.90;;;16.90;99.90;;;;;;4981851;28;20259;-78
2021/06/02 06:53:55;;;;;;;1999.90;999.90;;;17.00;99.90;;;;;;4976621;28;20235;-77
2021/06/02 06:56:22;;;;;;;1999.90;999.90;;;16.80;99.90;;;;;;4974832;28;20287;-78
2021/06/02 06:58:47;;;;;;;1999.90;999.90;;;16.80;99.90;;;;;;4976340;28;20182;-77
2021/06/02 07:01:17;;;;;;;1999.90;999.90;;;17.00;99.90;;;;;;4974045;28;20247;-78
2021/06/02 07:03:44;;;;;;;1999.90;999.90;;;17.00;99.90;;;;;;4977203;28;20168;-78
2021/06/02 07:06:15;;;;;;;1999.90;999.90;;;17.20;99.90;;;;;;4978647;28;20176;-78
2021/06/02 07:08:46;;;;;;;1999.90;999.90;;;17.30;99.90;;;;;;4979442;28;20235;-77
2021/06/02 07:11:17;;;;;;;1999.90;999.90;;;17.30;99.90;;;;;;4979645;28;20192;-78
2021/06/02 07:13:44;;;;;;;1999.90;999.90;;;17.20;99.90;;;;;;4977298;28;20479;-77
2021/06/02 07:16:12;;;;;;;1999.90;999.90;;;17.20;99.90;;;;;;4979048;28;20188;-77
2021/06/02 07:18:41;;;;;;;1999.90;999.90;;;17.40;99.90;;;;;;4989206;28;20276;-78
2021/06/02 07:21:08;;;;;;;1999.90;999.90;;;17.50;99.90;;;;;;4980071;28;20568;-75
2021/06/02 07:23:34;;;;;;;1999.90;999.90;;;17.60;99.90;;;;;;4978876;28;20180;-77
2021/06/02 07:26:00;;;;;;;1999.90;999.90;;;17.80;99.90;;;;;;4979363;28;20176;-77
2021/06/02 07:28:46;;;;;;;1999.90;999.90;;;17.80;99.90;;;;;;4978381;28;20176;-77
2021/06/02 07:31:12;;;;;;;1999.90;999.90;;;17.90;99.90;;;;;;4975113;28;20344;-76
2021/06/02 07:33:38;;;;;;;1999.90;999.90;;;18.10;99.90;;;;;;4973929;28;20655;-76
2021/06/02 07:36:08;;;;;;;1999.90;999.90;;;18.20;99.90;;;;;;4983597;28;20243;-76
2021/06/02 07:38:34;;;;;;;1999.90;999.90;;;18.30;99.90;;;;;;4966534;28;20174;-77
2021/06/02 07:41:00;;;;;;;1999.90;999.90;;;18.30;99.90;;;;;;4961503;28;20197;-78
2021/06/02 07:43:26;;;;;;;1999.90;999.90;;;18.50;99.90;;;;;;4992536;28;20631;-76
2021/06/02 07:45:52;;;;;;;1999.90;999.90;;;18.60;99.90;;;;;;4973927;28;20180;-76
2021/06/02 07:48:17;;;;;;;1999.90;999.90;;;18.80;99.90;;;;;;4976322;28;20190;-77
2021/06/02 07:50:43;;;;;;;1999.90;999.90;;;18.90;99.90;;;;;;4964799;28;20619;-77
2021/06/02 07:53:09;;;;;;;1999.90;999.90;;;18.90;99.90;;;;;;4976894;28;20176;-76
2021/06/02 07:55:35;;;;;;;1999.90;999.90;;;18.90;99.90;;;;;;4965997;28;20189;-76
2021/06/02 07:58:00;;;;;;;1999.90;999.90;;;18.90;99.90;;;;;;4958759;28;20177;-75
2021/06/02 08:00:27;;;;;;;1999.90;999.90;;;18.80;99.90;;;;;;4973032;28;20192;-76
2021/06/02 08:02:52;;;;;;;1999.90;999.90;;;19.00;99.90;;;;;;4979915;28;20176;-77
2021/06/02 08:05:18;;;;;;;1999.90;999.90;;;19.30;99.90;;;;;;4965941;28;20331;-77
2021/06/02 08:07:45;;;;;;;1999.90;999.90;;;19.40;99.90;;;;;;4977635;28;20176;-77
2021/06/02 08:10:13;;;;;;;1999.90;999.90;;;19.30;99.90;;;;;;4978250;28;20251;-77
2021/06/02 08:12:39;;;;;;;1999.90;999.90;;;19.30;99.90;;;;;;4977880;28;20180;-77
2021/06/02 08:15:08;;;;;;;1999.90;999.90;;;19.10;99.90;;;;;;4977695;28;20286;-77
2021/06/02 08:17:35;;;;;;;1999.90;999.90;;;19.10;99.90;;;;;;4979070;28;20247;-76
2021/06/02 08:20:01;;;;;;;1999.90;999.90;;;19.20;99.90;;;;;;4977599;28;20957;-77
2021/06/02 08:22:26;;;;;;;1999.90;999.90;;;19.10;99.90;;;;;;4978453;28;20176;-77
2021/06/02 08:24:52;;;;;;;1999.90;999.90;;;19.20;99.90;;;;;;4977760;28;20636;-75
2021/06/02 08:27:18;;;;;;;1999.90;999.90;;;19.40;99.90;;;;;;4976979;28;20177;-75
2021/06/02 08:29:44;;;;;;;1999.90;999.90;;;19.70;99.90;;;;;;4976976;28;20279;-76
2021/06/02 08:32:10;;;;;;;1999.90;999.90;;;19.70;99.90;;;;;;4978123;28;20200;-77
2021/06/02 08:34:36;;;;;;;1999.90;999.90;;;19.80;99.90;;;;;;4966267;28;20184;-76
2021/06/02 08:37:04;;;;;;;1999.90;999.90;;;20.20;99.90;;;;;;4973483;28;20275;-76
2021/06/02 08:39:29;;;;;;;1999.90;999.90;;;20.40;99.90;;;;;;4974243;28;20223;-76
2021/06/02 08:41:55;;;;;;;1999.90;999.90;;;20.50;99.90;;;;;;4975265;28;20188;-76
2021/06/02 08:44:22;;;;;;;1999.90;999.90;;;20.70;99.90;;;;;;4975227;28;20180;-76
2021/06/02 08:46:49;;;;;;;1999.90;999.90;;;20.80;99.90;;;;;;4978063;28;20554;-76
2021/06/02 08:49:15;;;;;;;1999.90;999.90;;;;;;;;;;4977718;28;20188;-77
2021/06/02 08:51:42;;;;;;;1999.90;999.90;;;20.90;99.70;;;;;;4974768;28;20803;-77
2021/06/02 08:54:08;;;;;;;1999.90;999.90;;;21.00;99.90;;;;;;4984166;28;20224;-77
2021/06/02 08:56:42;;;;;;;1999.90;999.90;;;20.90;99.70;;;;;;4977521;28;20197;-76
2021/06/02 08:59:08;;;;;;;1999.90;999.90;;;20.90;99.60;;;;;;4978987;28;20172;-78
2021/06/02 09:01:34;;;;;;;1999.90;999.90;;;20.80;99.30;;;;;;4973978;28;20277;-77
2021/06/02 09:04:08;;;;;;;1999.90;999.90;;;20.90;99.60;;;;;;4975929;28;20175;-77
2021/06/02 09:06:41;;;;;;;1999.90;999.90;;;21.00;98.90;;;;;;4975607;28;20667;-77
2021/06/02 09:09:07;;;;;;;1999.90;999.90;;;;;;;;;;4979573;28;20273;-77
2021/06/02 09:11:50;;;;;;;1999.90;999.90;;;21.10;99.40;;;;;;4971175;28;20200;-76
2021/06/02 09:14:37;;;;;;;1999.90;999.90;;;21.70;99.30;;;;;;4976643;28;20263;-76
2021/06/02 09:17:08;;;;;;;1999.90;999.90;;;21.80;97.90;;;;;;4970794;28;20188;-77
2021/06/02 09:19:48;;;;;;;1999.90;999.90;;;21.90;98.50;;;;;;4974735;28;20172;-78
2021/06/02 09:22:22;;;;;;;1999.90;999.90;;;22.00;99.10;;;;;;4974946;28;20295;-76
2021/06/02 09:24:52;;;;;;;1999.90;999.90;;;22.00;98.60;;;;;;4974273;28;20262;-76
2021/06/02 09:27:38;;;;;;;1999.90;999.90;;;22.10;99.60;;;;;;4971633;28;20204;-77
2021/06/02 09:30:04;;;;;;;1999.90;999.90;;;22.10;98.10;;;;;;4976215;28;20212;-76
2021/06/02 09:32:45;;;;;;;1999.90;999.90;;;22.20;97.90;;;;;;4969460;28;20173;-76
2021/06/02 09:35:11;;;;;;;1999.90;999.90;;;22.30;99.90;;;;;;4981094;28;20694;-78
2021/06/02 09:37:57;;;;;;;1999.90;999.90;;;22.40;99.10;;;;;;4973549;28;20176;-78
2021/06/02 09:40:25;;;;;;;1999.90;999.90;;;22.30;98.30;;;;;;4974615;28;20200;-76
2021/06/02 09:42:51;;;;;;;1999.90;999.90;;;22.40;97.90;;;;;;4970178;28;20273;-78
2021/06/02 09:45:17;;;;;;;1999.90;999.90;;;;;;;;;;4972737;28;20187;-78
2021/06/02 09:47:47;;;;;;;1999.90;999.90;;;;;;;;;;4974411;28;20315;-77
2021/06/02 09:50:14;;;;;;;1999.90;999.90;;;;;;;;;;4972389;28;20201;-77
2021/06/02 09:52:43;;;;;;;1999.90;999.90;;;;;;;;;;4975053;28;20546;-77
2021/06/02 09:55:10;;;;;;;1999.90;999.90;;;;;;;;;;4973934;28;20201;-77
2021/06/02 09:57:39;;;;;;;1999.90;999.90;;;;;;;;;;4973857;28;20177;-76
2021/06/02 10:00:05;;;;;;;1999.90;999.90;;;;;;;;;;4971324;28;20759;-77
2021/06/02 10:02:35;;;;;;;1999.90;999.90;;;;;;;;;;4971288;28;20639;-77
2021/06/02 10:05:08;;;;;;;1999.90;999.90;;;;;;;;;;4972415;28;20207;-76
2021/06/02 10:07:46;;;;;;;1999.90;999.90;;;;;;;;;;4972498;28;20176;-73
2021/06/02 10:13:46;;;;;;;1999.90;999.90;;;;;;;;;;4964516;28;20187;-75
2021/06/02 10:16:12;;;;;;;1999.90;999.90;;;;;;;;;;4971734;28;20545;-76
2021/06/02 10:18:47;;;;;;;1999.90;999.90;;;;;;;;;;4991604;28;20188;-76
2021/06/02 10:21:41;;;;;;;1999.90;999.90;;;;;;;;;;4992883;28;20198;-76
2021/06/02 10:24:29;;;;;;;1999.90;999.90;;;;;;;;;;4994095;28;20180;-76
2021/06/02 10:27:02;;;;;;;1999.90;999.90;;;;;;;;;;4994231;28;20190;-75
2021/06/02 10:31:59;;;;;;;1999.90;999.90;;;;;;;;;;5052716;28;20642;-75
2021/06/02 10:34:31;;;;;;;1999.90;999.90;;;;;;;;;;5035677;28;20216;-75
2021/06/02 10:37:00;;;;;;;1999.90;999.90;;;;;;;;;;5035927;28;20240;-76
2021/06/02 10:39:31;;;;;;;1999.90;999.90;;;;;;;;;;5033086;28;20186;-75
2021/06/02 10:42:19;;;;;;;1999.90;999.90;;;;;;;;;;5032150;28;20638;-75
2021/06/02 10:44:59;;;;;;;1999.90;999.90;;;;;;;;;;5015512;28;20191;-75
2021/06/02 10:47:58;;;;;;;1999.90;999.90;;;;;;;;;;5035162;28;20581;-75
2021/06/02 10:50:43;;;;;;;1999.90;999.90;;;;;;;;;;5041392;28;20762;-75
2021/06/02 10:53:23;;;;;;;1999.90;999.90;;;;;;;;;;5031987;28;20228;-76
2021/06/02 10:56:19;;;;;;;1999.90;999.90;;;;;;;;;;5041984;28;20273;-75
2021/06/02 10:58:45;;;;;;;1999.90;999.90;;;;;;;;;;5031985;28;20174;-75
2021/06/02 11:01:12;;;;;;;1999.90;999.90;;;;;;;;;;5034389;28;20199;-76
2021/06/02 11:03:39;;;;;;;1999.90;999.90;;;;;;;;;;5036236;28;20580;-76
2021/06/02 11:06:14;;;;;;;1999.90;999.90;;;;;;;;;;5032835;28;20178;-76
2021/06/02 11:08:49;;;;;;;1999.90;999.90;;;;;;;;;;5032893;28;20188;-76
2021/06/02 11:11:29;;;;;;;1999.90;999.90;;;;;;;;;;5034865;28;20204;-77
2021/06/02 11:14:18;;;;;;;1999.90;999.90;;;;;;;;;;5035483;28;20174;-77
2021/06/02 11:16:44;;;;;;;1999.90;999.90;;;;;;;;;;5034995;28;20254;-76
2021/06/02 11:19:20;;;;;;;1999.90;999.90;;;;;;;;;;5024787;28;20182;-76
2021/06/02 11:21:55;;;;;;;1999.90;999.90;;;;;;;;;;5035043;28;20185;-76
2021/06/02 11:24:34;;;;;;;1999.90;999.90;;;;;;;;;;5052791;28;20188;-76
2021/06/02 11:27:12;;;;;;;1999.90;999.90;;;;;;;;;;5052856;28;20178;-76
2021/06/02 11:29:58;;;;;;;1999.90;999.90;;;;;;;;;;5052622;28;20197;-77
2021/06/02 11:32:25;;;;;;;1999.90;999.90;;;;;;;;;;5035817;28;20182;-77
2021/06/02 11:34:58;;;;;;;1999.90;999.90;;;;;;;;;;5042578;28;20189;-77
2021/06/02 11:37:26;;;;;;;1999.90;999.90;;;;;;;;;;5030369;28;20221;-77
2021/06/02 11:39:54;;;;;;;1999.90;999.90;;;;;;;;;;5032256;28;20252;-77
2021/06/02 11:42:35;;;;;;;1999.90;999.90;;;;;;;;;;5032936;28;20249;-77
2021/06/02 11:45:07;;;;;;;1999.90;999.90;;;22.60;97.90;;;;;;5032884;28;20657;-76
2021/06/02 11:47:33;;;;;;;1999.90;999.90;;;26.00;94.30;;;;;;5052584;28;20173;-76
2021/06/02 11:50:07;;;;;;;1999.90;999.90;;;25.80;94.80;;;;;;5052502;28;20200;-77
2021/06/02 11:52:33;;;;;;;1999.90;999.90;;;26.00;94.20;;;;;;5037781;28;20174;-76
2021/06/02 11:55:12;;;;;;;1999.90;999.90;;;25.90;93.40;;;;;;5048342;28;20171;-77
2021/06/02 11:57:45;;;;;;;1999.90;999.90;;;26.00;93.80;;;;;;5038650;28;20179;-76
2021/06/02 12:00:14;;;;;;;1999.90;999.90;;;26.00;92.70;;;;;;5032647;28;20560;-76
2021/06/02 12:02:40;;;;;;;1999.90;999.90;;;26.00;93.00;;;;;;5041102;28;20178;-78
2021/06/02 12:05:19;;;;;;;1999.90;999.90;;;26.00;93.80;;;;;;5036686;28;20170;-77
2021/06/02 12:07:55;;;;;;;1999.90;999.90;;;26.00;92.90;;;;;;5056060;28;20521;-76
2021/06/02 12:10:35;;;;;;;1999.90;999.90;;;25.90;91.20;;;;;;5056182;28;20197;-77
2021/06/02 12:13:03;;;;;;;1999.90;999.90;;;25.80;90.80;;;;;;5038492;28;20268;-77
2021/06/02 12:15:47;;;;;;;1999.90;999.90;;;25.70;91.50;;;;;;5055788;28;20541;-77
2021/06/02 12:18:44;;;;;;;1999.90;999.90;;;25.80;91.20;;;;;;5056133;28;20258;-77
2021/06/02 12:21:28;;;;;;;1999.90;999.90;;;25.80;91.20;;;;;;5056101;28;20194;-78
2021/06/02 12:24:03;;;;;;;1999.90;999.90;;;25.70;89.50;;;;;;5048546;28;20260;-76
2021/06/02 12:26:35;;;;;;;1999.90;999.90;;;25.60;90.10;;;;;;5056111;28;20182;-76
2021/06/02 12:29:04;;;;;;;1999.90;999.90;;;25.60;91.00;;;;;;5038488;28;20182;-76
2021/06/02 12:31:45;;;;;;;1999.90;999.90;;;25.80;89.10;;;;;;5047889;28;20214;-76
2021/06/02 12:34:23;;;;;;;1999.90;999.90;;;25.80;90.20;;;;;;5040447;28;20231;-77
2021/06/02 12:36:49;;;;;;;1999.90;999.90;;;25.90;90.10;;;;;;5036883;28;20680;-77
2021/06/02 12:39:22;;;;;;;1999.90;999.90;;;26.10;89.10;;;;;;5036293;28;20171;-77
2021/06/02 12:41:50;;;;;;;1999.90;999.90;;;26.10;87.10;;;;;;5055919;28;20227;-78
2021/06/02 12:44:22;;;;;;;1999.90;999.90;;;26.10;91.10;;;;;;5039395;28;20185;-77
2021/06/02 12:47:16;;;;;;;1999.90;999.90;;;26.10;91.40;;;;;;5055423;28;20185;-77
2021/06/02 12:49:45;;;;;;;1999.90;999.90;;;26.00;87.80;;;;;;5053178;28;20289;-76
2021/06/02 12:52:10;;;;;;;1999.90;999.90;;;26.00;87.60;;;;;;5056513;28;20201;-77
2021/06/02 12:54:38;;;;;;;1999.90;999.90;;;25.90;87.00;;;;;;5033256;28;20182;-77
2021/06/02 12:57:04;;;;;;;1999.90;999.90;;;25.90;88.50;;;;;;5021252;28;20207;-77
2021/06/02 12:59:36;;;;;;;1999.90;999.90;;;25.70;88.80;;;;;;5029185;28;20648;-75
2021/06/02 13:02:04;;;;;;;1999.90;999.90;;;25.70;88.40;;;;;;5025770;28;20247;-79
2021/06/02 13:04:31;;;;;;;1999.90;999.90;;;25.90;90.40;;;;;;5037885;28;20316;-74
2021/06/02 13:06:57;;;;;;;1999.90;999.90;;;25.80;88.00;;;;;;5031550;28;20178;-77
2021/06/02 13:09:24;;;;;;;1999.90;999.90;;;25.80;88.30;;;;;;5019788;28;20191;-76
2021/06/02 13:11:50;;;;;;;1999.90;999.90;;;25.80;88.60;;;;;;5024829;28;20186;-78